Time;durP1;ratioP1;P1;durP2;ratioP2;P2;SDS_P1;SDS_P2;PMS_P1;PMS_P2;Temp;Humidity;BMP_temperature;BMP_pressure;BME280_temperature;BME280_humidity;BME280_pressure;Samples;Min_cycle;Max_cycle;Signal;HPM_P1;HPM_P2
2022/06/11 00:01:28;;;;;;;;;;;;;;;21.65;53.54;100790.34;5115729;28;20276;-59
2022/06/11 00:03:58;;;;;;;;;;;;;;;21.71;53.44;100785.94;5115672;27;19946;-59
2022/06/11 00:06:26;;;;;;;;;;;;;;;21.68;53.43;100789.56;5113069;28;20256;-59
2022/06/11 00:08:53;;;;;;;;;;;;;;;21.72;53.30;100790.44;5115937;28;19935;-59
2022/06/11 00:11:21;;;;;;;;;;;;;;;21.73;53.24;100794.88;5115477;28;19930;-59
2022/06/11 00:13:50;;;;;;;;;;;;;;;21.71;53.31;100790.81;5115386;28;19931;-58
2022/06/11 00:16:17;;;;;;;;;;;;;;;21.72;53.27;100795.28;5115196;28;20348;-59
2022/06/11 00:18:45;;;;;;;;;;;;;;;21.70;53.15;100792.84;5115639;28;19931;-59
2022/06/11 00:21:14;;;;;;;;;;;;;;;21.76;53.07;100801.84;5107527;28;19924;-59
2022/06/11 00:23:46;;;;;;;;;;;;;;;21.75;53.35;100798.16;5115587;28;20283;-59
2022/06/11 00:26:13;;;;;;;;;;;;;;;21.72;53.69;100804.59;5115296;27;19924;-59
2022/06/11 00:28:41;;;;;;;;;;;;;;;21.73;53.92;100794.88;5114984;28;19931;-59
2022/06/11 00:31:10;;;;;;;;;;;;;;;21.73;53.98;100797.72;5114747;27;19924;-58
2022/06/11 00:33:37;;;;;;;;;;;;;;;21.71;53.89;100800.13;5115022;27;19924;-59
2022/06/11 00:36:05;;;;;;;;;;;;;;;21.69;54.10;100797.69;5104846;28;20308;-58
2022/06/11 00:38:32;;;;;;;;;;;;;;;21.71;54.10;100797.28;5115240;28;20399;-59
2022/06/11 00:41:00;;;;;;;;;;;;;;;21.71;53.83;100805.78;5114794;28;20311;-59
2022/06/11 00:43:28;;;;;;;;;;;;;;;21.71;53.75;100802.16;5114411;28;19924;-59
2022/06/11 00:45:59;;;;;;;;;;;;;;;21.61;54.05;100795.94;5114596;28;19947;-58
2022/06/11 00:48:30;;;;;;;;;;;;;;;21.59;53.87;100789.03;5114878;28;19928;-59
2022/06/11 00:50:59;;;;;;;;;;;;;;;21.49;53.85;100791.31;5108420;28;19943;-58
2022/06/11 00:53:31;;;;;;;;;;;;;;;21.47;54.10;100788.03;5114361;28;19951;-59
2022/06/11 00:55:59;;;;;;;;;;;;;;;21.50;54.21;100794.94;5114600;28;19923;-59
2022/06/11 00:58:28;;;;;;;;;;;;;;;21.52;54.09;100791.75;5114522;28;19939;-59
2022/06/11 01:00:57;;;;;;;;;;;;;;;21.53;53.94;100794.19;5114614;28;20481;-59
2022/06/11 01:03:28;;;;;;;;;;;;;;;21.49;54.08;100787.66;5114218;28;19986;-59
2022/06/11 01:06:06;;;;;;;;;;;;;;;21.47;54.41;100790.88;5109603;28;19924;-59
2022/06/11 01:08:41;;;;;;;;;;;;;;;21.51;54.24;100793.75;5114746;27;20312;-59
2022/06/11 01:11:17;;;;;;;;;;;;;;;21.51;54.48;100785.25;5114429;28;19924;-58
2022/06/11 01:13:50;;;;;;;;;;;;;;;21.47;54.44;100788.03;5114548;28;19935;-58
2022/06/11 01:16:24;;;;;;;;;;;;;;;21.46;54.68;100794.06;5114404;28;19931;-59
2022/06/11 01:18:57;;;;;;;;;;;;;;;21.47;54.49;100790.88;5114310;28;19924;-58
2022/06/11 01:21:32;;;;;;;;;;;;;;;21.44;54.73;100790.81;5095687;28;19928;-59
2022/06/11 01:24:22;;;;;;;;;;;;;;;21.43;54.73;100790.00;5094038;28;19924;-59
2022/06/11 01:27:10;;;;;;;;;;;;;;;21.40;54.84;100793.56;5093266;28;19924;-59
2022/06/11 01:29:41;;;;;;;;;;;;;;;21.34;55.05;100788.63;5110979;28;19989;-58
2022/06/11 01:32:11;;;;;;;;;;;;;;;21.28;55.01;100788.91;5113858;28;19924;-59
2022/06/11 01:34:41;;;;;;;;;;;;;;;21.23;55.47;100794.06;5107966;28;20311;-59
2022/06/11 01:37:10;;;;;;;;;;;;;;;21.27;55.23;100790.13;5109534;28;19935;-53
2022/06/11 01:39:40;;;;;;;;;;;;;;;21.25;55.41;100791.69;5097596;28;20391;-59
2022/06/11 01:42:12;;;;;;;;;;;;;;;21.22;55.54;100795.28;5108679;28;19924;-58
2022/06/11 01:44:42;;;;;;;;;;;;;;;21.23;55.63;100783.59;5113905;28;19931;-59
2022/06/11 01:47:12;;;;;;;;;;;;;;;21.24;55.75;100796.53;5113512;28;19931;-55
2022/06/11 01:49:43;;;;;;;;;;;;;;;21.29;55.67;100787.75;5113229;28;19924;-58
2022/06/11 01:52:23;;;;;;;;;;;;;;;21.36;55.50;100794.72;5104990;28;19924;-58
2022/06/11 01:55:01;;;;;;;;;;;;;;;21.36;55.59;100798.38;5113676;28;19923;-58
2022/06/11 01:57:37;;;;;;;;;;;;;;;21.38;55.47;100795.97;5093212;28;20380;-59
2022/06/11 02:00:13;;;;;;;;;;;;;;;21.38;55.46;100798.81;5093549;28;19935;-58
2022/06/11 02:02:55;;;;;;;;;;;;;;;21.40;55.69;100798.44;5093343;28;19931;-59
2022/06/11 02:05:35;;;;;;;;;;;;;;;21.37;55.72;100797.16;5099276;28;19930;-58
2022/06/11 02:08:07;;;;;;;;;;;;;;;21.31;55.91;100795.84;5112918;28;19924;-47
2022/06/11 02:10:37;;;;;;;;;;;;;;;21.28;55.85;100791.75;5113652;28;20395;-58
2022/06/11 02:13:09;;;;;;;;;;;;;;;21.28;56.05;100799.44;5113665;28;20288;-57
2022/06/11 02:15:40;;;;;;;;;;;;;;;21.32;55.94;100797.50;5112898;28;19924;-58
2022/06/11 02:18:09;;;;;;;;;;;;;;;21.25;56.24;100788.84;5113617;28;19946;-58
2022/06/11 02:20:39;;;;;;;;;;;;;;;21.22;56.30;100806.63;5111282;28;19931;-58
2022/06/11 02:23:09;;;;;;;;;;;;;;;21.20;56.42;100803.34;5113333;28;19924;-58
2022/06/11 02:25:38;;;;;;;;;;;;;;;21.21;56.34;100807.84;5113022;28;20275;-58
2022/06/11 02:28:07;;;;;;;;;;;;;;;21.18;56.42;100805.75;5113360;28;19928;-59
2022/06/11 02:30:35;;;;;;;;;;;;;;;21.11;56.63;100805.63;5112770;28;19931;-58
2022/06/11 02:33:04;;;;;;;;;;;;;;;21.09;56.58;100806.00;5113209;28;19930;-58
2022/06/11 02:35:41;;;;;;;;;;;;;;;21.09;56.99;100806.00;5109316;28;19930;-59
2022/06/11 02:38:13;;;;;;;;;;;;;;;21.09;56.92;100803.19;5095711;28;19947;-58
2022/06/11 02:40:42;;;;;;;;;;;;;;;21.12;56.96;100812.91;5092230;28;20394;-59
2022/06/11 02:43:09;;;;;;;;;;;;;;;21.12;57.00;100813.72;5092834;28;19924;-58
2022/06/11 02:45:39;;;;;;;;;;;;;;;21.15;56.92;100820.69;5092429;28;20296;-58
2022/06/11 02:48:08;;;;;;;;;;;;;;;21.07;57.30;100811.22;5092540;28;19924;-59
2022/06/11 02:50:36;;;;;;;;;;;;;;;20.99;57.39;100812.28;5096482;28;19948;-59
2022/06/11 02:53:05;;;;;;;;;;;;;;;21.02;57.42;100818.03;5113370;28;20356;-59
2022/06/11 02:55:33;;;;;;;;;;;;;;;21.06;57.39;100818.91;5112983;28;20375;-59
2022/06/11 02:58:01;;;;;;;;;;;;;;;21.06;57.38;100818.91;5113155;28;19923;-58
2022/06/11 03:00:29;;;;;;;;;;;;;;;21.01;57.37;100816.38;5112541;28;20304;-59
2022/06/11 03:02:57;;;;;;;;;;;;;;;21.05;57.26;100822.94;5116590;28;19927;-58
2022/06/11 03:05:28;;;;;;;;;;;;;;;21.05;57.44;100814.44;5105501;28;19931;-59
2022/06/11 03:07:55;;;;;;;;;;;;;;;21.03;57.53;100822.50;5109770;28;19923;-59
2022/06/11 03:10:23;;;;;;;;;;;;;;;21.00;57.86;100820.44;5116865;28;19923;-58
2022/06/11 03:12:54;;;;;;;;;;;;;;;21.02;57.77;100820.88;5115990;28;19931;-59
2022/06/11 03:15:23;;;;;;;;;;;;;;;20.95;58.07;100823.56;5116772;28;19931;-59
2022/06/11 03:17:51;;;;;;;;;;;;;;;20.87;58.17;100828.28;5116977;28;19924;-59
2022/06/11 03:20:21;;;;;;;;;;;;;;;20.86;58.44;100823.81;5116422;28;19931;-58
2022/06/11 03:22:52;;;;;;;;;;;;;;;20.89;58.28;100827.88;5115959;28;20271;-58
2022/06/11 03:25:19;;;;;;;;;;;;;;;20.87;58.57;100828.28;5116237;28;19924;-58
2022/06/11 03:27:46;;;;;;;;;;;;;;;20.89;58.48;100825.06;5116248;28;19928;-58
2022/06/11 03:30:15;;;;;;;;;;;;;;;20.90;58.70;100835.22;5116272;28;19924;-59
2022/06/11 03:32:42;;;;;;;;;;;;;;;20.90;58.66;100832.38;5116390;28;20390;-58
2022/06/11 03:35:09;;;;;;;;;;;;;;;20.88;58.71;100835.56;5105797;28;19931;-59
2022/06/11 03:37:36;;;;;;;;;;;;;;;20.88;58.73;100829.09;5096061;28;19976;-58
2022/06/11 03:40:06;;;;;;;;;;;;;;;20.87;58.79;100838.78;5095653;28;19924;-58
2022/06/11 03:42:33;;;;;;;;;;;;;;;20.90;58.79;100837.22;5095728;28;19924;-58
2022/06/11 03:45:00;;;;;;;;;;;;;;;20.87;58.78;100847.28;5095820;28;19924;-58
2022/06/11 03:47:27;;;;;;;;;;;;;;;20.88;58.95;100852.56;5095630;28;19931;-58
2022/06/11 03:49:56;;;;;;;;;;;;;;;20.91;58.78;100845.31;5100569;28;20372;-57
2022/06/11 03:52:27;;;;;;;;;;;;;;;20.91;58.78;100848.16;5095628;28;19931;-59
2022/06/11 03:54:56;;;;;;;;;;;;;;;20.96;58.70;100850.69;5095521;28;19924;-59
2022/06/11 03:57:25;;;;;;;;;;;;;;;20.92;58.99;100863.97;5095613;28;19925;-58
2022/06/11 03:59:52;;;;;;;;;;;;;;;20.86;59.13;100859.81;5095288;28;19931;-59
2022/06/11 04:02:19;;;;;;;;;;;;;;;20.83;59.00;100861.38;5095213;28;19931;-58
2022/06/11 04:04:46;;;;;;;;;;;;;;;20.78;59.21;100863.69;5099107;28;20423;-59
2022/06/11 04:07:14;;;;;;;;;;;;;;;20.86;58.93;100863.44;5115778;28;19923;-59
2022/06/11 04:09:43;;;;;;;;;;;;;;;20.92;58.54;100866.81;5115239;28;19931;-58
2022/06/11 04:12:15;;;;;;;;;;;;;;;20.90;58.82;100860.69;5114607;28;19923;-58
2022/06/11 04:14:45;;;;;;;;;;;;;;;20.87;58.94;100872.75;5114857;28;19931;-58
2022/06/11 04:17:15;;;;;;;;;;;;;;;20.84;58.95;100860.16;5115633;27;20006;-59
2022/06/11 04:19:44;;;;;;;;;;;;;;;20.92;58.81;100863.97;5114267;28;19924;-58
2022/06/11 04:22:11;;;;;;;;;;;;;;;20.97;58.83;100865.66;5115688;28;20276;-58
2022/06/11 04:24:41;;;;;;;;;;;;;;;20.94;58.85;100867.25;5114887;28;19931;-58
2022/06/11 04:27:08;;;;;;;;;;;;;;;20.90;59.03;100862.72;5115720;27;19923;-58
2022/06/11 04:29:36;;;;;;;;;;;;;;;20.84;59.18;100867.84;5114932;28;19946;-58
2022/06/11 04:32:07;;;;;;;;;;;;;;;20.80;59.12;100869.78;5115597;28;19972;-58
2022/06/11 04:34:38;;;;;;;;;;;;;;;20.80;59.03;100866.97;5109420;28;20382;-57
2022/06/11 04:37:06;;;;;;;;;;;;;;;20.76;59.20;100872.56;5115035;28;19928;-60
2022/06/11 04:39:33;;;;;;;;;;;;;;;20.66;59.54;100864.66;5114842;28;20268;-60
2022/06/11 04:42:00;;;;;;;;;;;;;;;20.66;59.67;100875.97;5115335;28;19931;-60
2022/06/11 04:44:28;;;;;;;;;;;;;;;20.51;60.15;100877.66;5114034;28;19928;-60
2022/06/11 04:46:55;;;;;;;;;;;;;;;20.51;60.21;100874.03;5114832;28;19924;-59
2022/06/11 04:49:24;;;;;;;;;;;;;;;20.46;60.62;100875.16;5107607;28;19923;-60
2022/06/11 04:51:53;;;;;;;;;;;;;;;20.49;60.62;100868.72;5094601;28;19931;-61
2022/06/11 04:54:20;;;;;;;;;;;;;;;20.39;61.15;100864.50;5094551;28;19998;-56
2022/06/11 04:56:47;;;;;;;;;;;;;;;20.42;61.15;100868.59;5094663;28;20398;-60
2022/06/11 04:59:14;;;;;;;;;;;;;;;20.45;61.05;100874.34;5094721;28;19932;-60
2022/06/11 05:01:42;;;;;;;;;;;;;;;20.47;61.15;100873.94;5094302;28;20276;-60
2022/06/11 05:04:10;;;;;;;;;;;;;;;20.41;61.42;100864.13;5092643;28;19931;-60
2022/06/11 05:06:40;;;;;;;;;;;;;;;20.48;60.99;100867.91;5094134;28;20378;-60
2022/06/11 05:09:08;;;;;;;;;;;;;;;20.50;60.98;100873.22;5113416;28;19930;-50
2022/06/11 05:11:35;;;;;;;;;;;;;;;20.51;60.83;100874.84;5112156;27;19923;-51
2022/06/11 05:14:02;;;;;;;;;;;;;;;20.59;60.59;100878.69;5094415;28;19924;-48
2022/06/11 05:16:30;;;;;;;;;;;;;;;20.53;60.67;100875.28;5093936;28;19924;-52
2022/06/11 05:18:57;;;;;;;;;;;;;;;20.55;60.53;100872.09;5095009;28;19928;-51
2022/06/11 05:21:24;;;;;;;;;;;;;;;20.60;60.48;100867.00;5114013;28;19939;-51
2022/06/11 05:23:52;;;;;;;;;;;;;;;20.62;60.60;100869.44;5113351;28;19930;-50
2022/06/11 05:26:21;;;;;;;;;;;;;;;20.59;59.94;100865.34;5113730;28;19924;-50
2022/06/11 05:28:48;;;;;;;;;;;;;;;20.76;59.67;100871.72;5114026;27;19931;-51
2022/06/11 05:31:15;;;;;;;;;;;;;;;20.67;59.75;100878.44;5114412;28;19924;-49
2022/06/11 05:33:43;;;;;;;;;;;;;;;20.77;59.65;100879.06;5110691;28;19928;-50
2022/06/11 05:36:10;;;;;;;;;;;;;;;20.86;59.58;100871.94;5113242;28;20328;-50
2022/06/11 05:38:37;;;;;;;;;;;;;;;20.93;59.46;100879.75;5111538;28;19924;-53
2022/06/11 05:41:06;;;;;;;;;;;;;;;20.99;58.81;100886.75;5097870;28;20292;-51
2022/06/11 05:43:33;;;;;;;;;;;;;;;21.00;58.81;100879.91;5093342;28;19955;-51
2022/06/11 05:46:02;;;;;;;;;;;;;;;21.12;58.61;100881.72;5093693;28;19925;-52
2022/06/11 05:48:45;;;;;;;;;;;;;;;21.18;58.17;100879.41;5093204;28;19928;-51
2022/06/11 05:51:13;;;;;;;;;;;;;;;21.29;57.47;100880.41;5093642;28;19926;-53
2022/06/11 05:53:41;;;;;;;;;;;;;;;21.45;57.44;100881.13;5095053;28;20380;-52
2022/06/11 05:56:09;;;;;;;;;;;;;;;21.58;56.68;100878.09;5113438;28;19924;-51
2022/06/11 05:58:39;;;;;;;;;;;;;;;21.82;56.14;100872.00;5113401;28;19924;-53
2022/06/11 06:01:09;;;;;;;;;;;;;;;22.03;54.90;100870.69;5113931;28;19924;-49
2022/06/11 06:03:36;;;;;;;;;;;;;;;22.27;54.82;100870.22;5107778;28;19927;-52
2022/06/11 06:06:03;;;;;;;;;;;;;;;22.61;54.74;100867.41;5093753;28;19924;-52
2022/06/11 06:08:30;;;;;;;;;;;;;;;22.90;53.94;100874.25;5107213;28;20371;-52
2022/06/11 06:10:57;;;;;;;;;;;;;;;23.11;52.81;100872.88;5113480;28;20299;-48
2022/06/11 06:16:10;;;;;;;;;;;;;;;23.65;51.75;100871.31;5101178;28;19944;-49
2022/06/11 06:18:36;;;;;;;;;;;;;;;23.80;51.81;100869.41;5093562;28;19924;-52
2022/06/11 06:21:04;;;;;;;;;;;;;;;24.00;51.19;100878.50;5111220;28;19931;-51
2022/06/11 06:23:31;;;;;;;;;;;;;;;24.21;50.21;100883.50;5108745;28;20027;-52
2022/06/11 06:25:58;;;;;;;;;;;;;;;24.39;50.15;100885.63;5102429;28;19931;-50
2022/06/11 06:28:26;;;;;;;;;;;;;;;24.44;49.66;100890.91;5108154;28;19923;-52
2022/06/11 06:30:54;;;;;;;;;;;;;;;24.46;49.18;100879.94;5099577;28;19931;-52
2022/06/11 06:33:22;;;;;;;;;;;;;;;24.41;49.43;100886.03;5101235;28;19931;-54
2022/06/11 06:35:49;;;;;;;;;;;;;;;24.51;48.54;100883.28;5092972;28;19934;-53
2022/06/11 06:38:16;;;;;;;;;;;;;;;24.54;48.83;100895.88;5095882;28;19930;-50
2022/06/11 06:40:43;;;;;;;;;;;;;;;24.69;48.47;100896.75;5103508;28;19924;-50
2022/06/11 06:43:13;;;;;;;;;;;;;;;24.94;48.07;100893.19;5105712;28;19928;-52
2022/06/11 06:45:42;;;;;;;;;;;;;;;25.14;47.27;100894.44;5106201;28;19931;-53
2022/06/11 06:48:09;;;;;;;;;;;;;;;25.19;47.13;100896.09;5111892;28;19928;-54
2022/06/11 06:50:36;;;;;;;;;;;;;;;25.33;47.06;100895.34;5100040;28;20296;-54
2022/06/11 06:53:03;;;;;;;;;;;;;;;25.30;46.74;100902.63;5093052;28;19931;-50
2022/06/11 06:55:30;;;;;;;;;;;;;;;25.38;46.04;100900.63;5092580;28;19924;-53
2022/06/11 06:57:57;;;;;;;;;;;;;;;25.52;46.06;100909.19;5092746;28;19932;-51
2022/06/11 07:00:24;;;;;;;;;;;;;;;25.57;46.09;100905.91;5109860;28;19931;-49
2022/06/11 07:02:53;;;;;;;;;;;;;;;25.57;45.97;100903.06;5100290;28;19924;-49
2022/06/11 07:05:21;;;;;;;;;;;;;;;25.58;46.02;100913.28;5093089;28;19924;-52
2022/06/11 07:07:48;;;;;;;;;;;;;;;25.47;46.66;100907.56;5095708;28;19944;-49
2022/06/11 07:10:17;;;;;;;;;;;;;;;25.59;45.81;100914.88;5096118;28;19924;-52
2022/06/11 07:12:44;;;;;;;;;;;;;;;25.59;45.93;100908.38;5107263;28;19924;-50
2022/06/11 07:15:11;;;;;;;;;;;;;;;25.77;46.03;100914.09;5111364;28;19924;-52
2022/06/11 07:17:41;;;;;;;;;;;;;;;25.90;45.90;100910.41;5093010;28;19924;-54
2022/06/11 07:20:12;;;;;;;;;;;;;;;26.00;45.67;100908.78;5101210;28;20288;-48
2022/06/11 07:22:41;;;;;;;;;;;;;;;26.12;45.52;100899.78;5096555;28;19931;-51
2022/06/11 07:25:09;;;;;;;;;;;;;;;26.06;44.96;100912.03;5092543;28;19924;-49
2022/06/11 07:27:38;;;;;;;;;;;;;;;26.14;44.79;100907.94;5109517;28;20398;-51
2022/06/11 07:30:09;;;;;;;;;;;;;;;26.02;46.00;100909.19;5103797;28;20303;-49
2022/06/11 07:32:37;;;;;;;;;;;;;;;26.02;45.63;100908.38;5112068;28;20384;-51
2022/06/11 07:35:05;;;;;;;;;;;;;;;25.96;45.57;100913.69;5103677;28;19931;-51
2022/06/11 07:37:35;;;;;;;;;;;;;;;25.95;45.77;100909.19;5096066;28;19932;-51
2022/06/11 07:40:02;;;;;;;;;;;;;;;26.04;46.06;100915.31;5104748;28;20300;-51
2022/06/11 07:42:29;;;;;;;;;;;;;;;26.16;46.95;100908.34;5093225;28;19931;-49
2022/06/11 07:44:56;;;;;;;;;;;;;;;26.30;46.41;100904.63;5100112;28;19928;-49
2022/06/11 07:50:05;;;;;;;;;;;;;;;26.42;45.17;100914.81;5112720;28;19923;-49
2022/06/11 07:52:32;;;;;;;;;;;;;;;26.23;44.88;100902.63;5099591;28;19931;-50
2022/06/11 07:55:00;;;;;;;;;;;;;;;26.26;45.17;100901.78;5106126;28;19924;-49
2022/06/11 07:57:28;;;;;;;;;;;;;;;26.28;44.92;100909.94;5097907;28;19932;-50
2022/06/11 07:59:55;;;;;;;;;;;;;;;26.45;44.52;100908.25;5100987;28;20264;-53
2022/06/11 08:02:22;;;;;;;;;;;;;;;26.47;44.57;100915.19;5097449;28;20272;-50
2022/06/11 08:04:49;;;;;;;;;;;;;;;26.59;44.39;100907.44;5108595;28;20326;-49
2022/06/11 08:07:16;;;;;;;;;;;;;;;26.84;44.24;100910.19;5096914;28;19951;-52
2022/06/11 08:09:43;;;;;;;;;;;;;;;27.14;43.80;100909.59;5106191;28;19935;-49
2022/06/11 08:12:12;;;;;;;;;;;;;;;27.54;42.58;100905.25;5095994;28;19931;-50
2022/06/11 08:14:39;;;;;;;;;;;;;;;28.46;41.20;100906.81;5100642;28;19924;-51
2022/06/11 08:17:05;;;;;;;;;;;;;;;29.10;40.45;100913.81;5099111;28;19924;-49
2022/06/11 08:19:33;;;;;;;;;;;;;;;29.14;39.69;100908.84;5095435;28;19931;-53
2022/06/11 08:22:00;;;;;;;;;;;;;;;29.54;39.69;100909.03;5103735;28;20283;-48
2022/06/11 08:24:27;;;;;;;;;;;;;;;29.40;38.74;100909.25;5095745;28;19924;-53
2022/06/11 08:26:54;;;;;;;;;;;;;;;29.19;39.14;100907.53;5097469;28;20435;-51
2022/06/11 08:29:22;;;;;;;;;;;;;;;29.09;39.19;100915.84;5095245;28;20038;-51
2022/06/11 08:31:49;;;;;;;;;;;;;;;30.09;38.19;100904.81;5101622;28;19924;-51
2022/06/11 08:34:16;;;;;;;;;;;;;;;30.75;37.06;100919.53;5099881;28;20292;-52
2022/06/11 08:36:43;;;;;;;;;;;;;;;31.24;35.66;100918.88;5113808;28;19931;-51
2022/06/11 08:39:10;;;;;;;;;;;;;;;32.46;34.43;100910.81;5112959;28;20299;-51
2022/06/11 08:41:37;;;;;;;;;;;;;;;33.27;32.70;100908.03;5096150;28;19924;-49
2022/06/11 08:44:08;;;;;;;;;;;;;;;33.24;31.79;100898.22;5099965;28;20380;-51
2022/06/11 08:46:37;;;;;;;;;;;;;;;34.32;30.83;100895.34;5098348;28;19924;-52
2022/06/11 08:49:10;;;;;;;;;;;;;;;35.40;29.59;100896.97;5101189;28;19930;-50
2022/06/11 08:51:46;;;;;;;;;;;;;;;36.62;27.63;100894.56;5101380;28;19933;-56
2022/06/11 08:54:14;;;;;;;;;;;;;;;38.10;25.77;100899.75;5097165;28;19931;-52
2022/06/11 08:59:45;;;;;;;;;;;;;;;36.22;27.08;100898.44;5092461;28;20010;-53
2022/06/11 09:02:22;;;;;;;;;;;;;;;35.16;28.93;100909.09;5095415;28;19947;-49
2022/06/11 09:04:59;;;;;;;;;;;;;;;34.95;29.12;100898.34;5099900;28;19931;-52
2022/06/11 09:07:37;;;;;;;;;;;;;;;34.05;30.81;100892.19;5094598;28;19932;-48
2022/06/11 09:10:13;;;;;;;;;;;;;;;33.23;31.20;100905.25;5094307;28;19924;-52
2022/06/11 09:12:49;;;;;;;;;;;;;;;32.56;32.82;100900.25;5095903;28;19931;-51
2022/06/11 09:15:36;;;;;;;;;;;;;;;33.95;31.16;100894.19;5094109;28;19924;-53
2022/06/11 09:18:12;;;;;;;;;;;;;;;35.07;30.15;100891.66;5107008;28;19931;-53
2022/06/11 09:20:47;;;;;;;;;;;;;;;34.94;29.88;100900.44;5111063;28;19932;-53
2022/06/11 09:23:35;;;;;;;;;;;;;;;34.24;30.48;100899.78;5096000;28;19939;-52
2022/06/11 09:26:08;;;;;;;;;;;;;;;33.10;31.86;100893.69;5093458;28;20300;-52
2022/06/11 09:28:40;;;;;;;;;;;;;;;32.32;32.52;100903.41;5093302;28;19924;-54
2022/06/11 09:31:11;;;;;;;;;;;;;;;31.43;33.93;100905.69;5093920;28;19931;-53
2022/06/11 09:33:43;;;;;;;;;;;;;;;31.04;34.59;100908.25;5097772;28;20154;-52
2022/06/11 09:36:13;;;;;;;;;;;;;;;30.53;36.02;100907.66;5112180;28;19923;-49
2022/06/11 09:38:48;;;;;;;;;;;;;;;31.84;34.76;100913.72;5112489;28;19936;-53
2022/06/11 09:41:25;;;;;;;;;;;;;;;32.84;32.72;100910.13;5106507;28;19935;-50
2022/06/11 09:43:54;;;;;;;;;;;;;;;34.39;31.00;100916.59;5097968;28;19946;-53
2022/06/11 09:46:25;;;;;;;;;;;;;;;35.63;29.22;100920.84;5107110;28;19930;-50
2022/06/11 09:49:04;;;;;;;;;;;;;;;35.74;28.67;100916.25;5108130;28;20382;-53
2022/06/11 09:51:34;;;;;;;;;;;;;;;37.15;27.39;100913.66;5093161;28;19924;-53
2022/06/11 09:56:14;;;;;;;4.72;2.50;;;;;;;39.85;24.00;100908.63;5119536;27;20565;-55
2022/06/11 09:58:50;;;;;;;3.58;2.03;;;;;;;41.62;22.03;100913.63;5071533;28;20413;-55
2022/06/11 10:01:23;;;;;;;3.20;2.00;;;;;;;42.14;20.34;100916.31;5071519;28;20064;-55
2022/06/11 10:03:54;;;;;;;2.80;2.33;;;;;;;43.12;19.48;100916.81;5087599;28;20058;-56
2022/06/11 10:06:26;;;;;;;3.22;2.20;;;;;;;43.91;18.52;100908.69;5069357;28;20045;-55
2022/06/11 10:08:57;;;;;;;3.25;1.98;;;;;;;44.08;17.98;100908.63;5069549;28;20063;-56
2022/06/11 10:11:30;;;;;;;3.20;2.10;;;;;;;42.17;19.33;100916.06;5069424;28;20061;-55
2022/06/11 10:14:28;;;;;;;3.35;2.13;;;;;;;40.79;21.41;100910.31;5069126;28;20056;-55
2022/06/11 10:16:56;;;;;;;3.17;1.60;;;;;;;39.23;22.38;100917.22;5081999;28;20048;-55
2022/06/11 10:19:29;;;;;;;3.35;1.90;;;;;;;37.75;23.97;100909.78;5092300;28;20052;-56
2022/06/11 10:22:04;;;;;;;2.88;2.17;;;;;;;37.66;24.69;100917.78;5109646;28;20411;-53
2022/06/11 10:24:35;;;;;;;2.92;2.40;;;;;;;36.62;25.41;100920.69;5109623;28;20055;-54
2022/06/11 10:27:09;;;;;;;2.83;1.80;;;;;;;36.01;26.12;100913.88;5109513;28;20062;-52
2022/06/11 10:29:43;;;;;;;2.90;1.88;;;;;;;36.63;26.06;100916.50;5109587;28;20055;-54
2022/06/11 10:32:16;;;;;;;3.58;1.70;;;;;;;37.86;24.84;100915.06;5109585;28;20062;-53
2022/06/11 10:34:48;;;;;;;2.90;1.75;;;;;;;38.07;24.79;100918.97;5084114;28;20060;-53
2022/06/11 10:37:23;;;;;;;2.45;1.80;;;;;;;38.18;23.72;100921.34;5083457;28;20048;-54
2022/06/11 10:39:54;;;;;;;2.72;1.40;;;;;;;37.31;25.25;100918.25;5081185;28;20060;-55
2022/06/11 10:42:29;;;;;;;3.25;1.65;;;;;;;36.69;26.02;100922.47;5086040;28;20065;-53
2022/06/11 10:44:57;;;;;;;2.97;1.60;;;;;;;36.27;26.33;100921.00;5088321;28;20048;-55
2022/06/11 10:47:29;;;;;;;3.40;1.52;;;;;;;35.41;27.18;100915.97;5117872;28;20055;-55
2022/06/11 10:50:07;;;;;;;3.17;1.77;;;;;;;34.52;27.79;100920.22;5106733;27;20048;-55
2022/06/11 10:52:41;;;;;;;3.47;2.53;;;;;;;34.50;27.56;100912.03;5088426;28;20056;-55
2022/06/11 10:55:14;;;;;;;2.78;1.92;;;;;;;35.98;26.19;100912.75;5094784;28;20058;-56
2022/06/11 10:57:44;;;;;;;2.92;1.65;;;;;;;36.43;26.23;100911.16;5093345;28;20047;-56
2022/06/11 11:00:20;;;;;;;2.97;1.75;;;;;;;35.85;26.86;100915.78;5107901;28;20051;-55
2022/06/11 11:02:51;;;;;;;3.20;2.03;;;;;;;36.35;25.92;100912.78;5094202;28;20071;-55
2022/06/11 11:05:21;;;;;;;2.72;2.10;;;;;;;38.06;23.86;100907.84;5095445;28;20404;-54
2022/06/11 11:07:56;;;;;;;3.15;1.80;;;;;;;39.34;23.34;100899.09;5091701;28;20063;-55
2022/06/11 11:10:43;;;;;;;4.22;2.10;;;;;;;39.75;21.90;100893.34;5091390;28;20126;-56
2022/06/11 11:13:21;;;;;;;2.83;2.10;;;;;;;41.47;19.78;100887.47;5074749;28;20059;-56
2022/06/11 11:15:56;;;;;;;3.00;1.67;;;;;;;41.83;19.87;100897.50;5089924;28;20420;-56
2022/06/11 11:18:28;;;;;;;2.30;2.10;;;;;;;42.25;19.43;100889.97;5091361;28;20053;-53
2022/06/11 11:21:02;;;;;;;2.90;2.03;;;;;;;40.90;19.97;100895.00;5087838;28;20056;-56
2022/06/11 11:23:35;;;;;;;2.65;1.58;;;;;;;39.26;21.50;100897.91;5090486;28;20067;-54
2022/06/11 11:26:07;;;;;;;2.50;2.30;;;;;;;39.04;21.48;100899.16;5103169;28;20059;-55
2022/06/11 11:28:53;;;;;;;3.00;1.90;;;;;;;40.16;20.33;100896.31;5094284;28;20054;-56
2022/06/11 11:31:24;;;;;;;1.95;1.25;;;;;;;40.53;20.63;100892.75;5074687;28;20049;-56
2022/06/11 11:34:03;;;;;;;2.50;1.50;;;;;;;39.26;22.29;100884.16;5079147;28;20485;-56
2022/06/11 11:36:32;;;;;;;3.00;1.40;;;;;;;39.69;21.53;100880.81;5115021;28;20051;-56
2022/06/11 11:39:20;;;;;;;1.90;1.30;;;;;;;38.95;22.45;100884.66;5114826;28;20058;-56
2022/06/11 11:42:01;;;;;;;3.50;1.85;;;;;;;37.77;22.84;100889.75;5094954;28;20051;-55
2022/06/11 11:44:37;;;;;;;4.18;2.35;;;;;;;38.60;22.81;100887.47;5114974;28;20058;-55
2022/06/11 11:47:11;;;;;;;2.58;1.95;;;;;;;39.63;22.75;100882.84;5114452;28;20047;-55
2022/06/11 11:49:39;;;;;;;2.25;1.88;;;;;;;40.50;20.76;100877.06;5090489;28;20416;-55
2022/06/11 11:52:08;;;;;;;;;;;;;;;41.42;20.51;100874.41;5078861;28;20515;-55
2022/06/11 11:54:36;;;;;;;2.35;1.50;;;;;;;41.54;19.73;100878.22;5088542;28;19920;-56
2022/06/11 11:57:05;;;;;;;;;;;;;;;40.38;20.61;100884.09;5090278;28;20058;-55
2022/06/11 11:59:51;;;;;;;2.25;1.45;;;;;;;39.35;21.21;100877.38;5101434;28;19920;-55
2022/06/11 12:02:24;;;;;;;3.80;1.45;;;;;;;38.72;22.30;100878.44;5084177;28;20063;-55
2022/06/11 12:04:55;;;;;;;2.80;1.60;;;;;;;38.88;22.18;100882.97;5111014;27;20075;-55
2022/06/11 12:07:31;;;;;;;2.78;2.08;;;;;;;38.60;23.23;100876.66;5113985;28;20067;-55
2022/06/11 12:10:07;;;;;;;2.17;1.80;;;;;;;39.68;22.02;100876.31;5114386;28;20060;-55
2022/06/11 12:12:37;;;;;;;2.50;1.92;;;;;;;40.47;20.76;100872.25;5114458;28;20054;-55
2022/06/11 12:15:19;;;;;;;2.65;1.77;;;;;;;41.08;21.11;100876.28;5113947;28;20048;-54
2022/06/11 12:17:51;;;;;;;4.03;2.13;;;;;;;41.63;19.93;100868.44;5113037;28;20047;-55
2022/06/11 12:20:34;;;;;;;4.90;2.17;;;;;;;41.81;19.55;100867.19;5109886;28;20054;-54
2022/06/11 12:23:11;;;;;;;2.63;1.23;;;;;;;40.58;20.26;100866.53;5113721;28;20058;-56
2022/06/11 12:25:45;;;;;;;2.95;1.30;;;;;;;39.77;21.08;100867.41;5114367;27;20055;-55
2022/06/11 12:28:16;;;;;;;3.08;2.20;;;;;;;39.81;21.43;100873.81;5114103;28;20058;-55
2022/06/11 12:30:44;;;;;;;2.28;1.77;;;;;;;40.29;21.39;100869.69;5113951;28;20051;-55
2022/06/11 12:33:13;;;;;;;2.17;1.45;;;;;;;40.57;21.27;100869.94;5109705;28;20052;-54
2022/06/11 12:35:51;;;;;;;2.35;1.40;;;;;;;39.82;21.39;100869.59;5114241;27;20059;-54
2022/06/11 12:38:25;;;;;;;;;;;;;;;38.80;22.07;100869.31;5114339;28;20245;-55
2022/06/11 12:41:00;;;;;;;2.40;1.55;;;;;;;38.17;23.02;100871.03;5104635;28;19919;-55
2022/06/11 12:43:44;;;;;;;2.20;1.40;;;;;;;36.97;24.16;100871.72;5102306;28;20095;-55
2022/06/11 12:46:22;;;;;;;3.25;1.70;;;;;;;36.24;25.94;100875.56;5113286;28;20399;-55
2022/06/11 12:48:54;;;;;;;2.00;1.70;;;;;;;36.97;25.39;100870.91;5113738;28;20507;-55